createdAt,value
2022-10-01T00:01:50.828Z,10.28
2022-10-01T00:06:59.235Z,10.22
2022-10-01T00:12:05.501Z,10.19
2022-10-01T00:17:11.094Z,10.16
2022-10-01T00:22:18.931Z,10.15
2022-10-01T00:27:24.735Z,10.18
2022-10-01T00:32:32.276Z,10.14
2022-10-01T00:37:38.339Z,10.12
2022-10-01T00:42:44.237Z,10.12
2022-10-01T00:47:55.602Z,10.14
2022-10-01T00:53:05.253Z,10.15
2022-10-01T00:58:13.199Z,10.14
2022-10-01T01:03:19.241Z,10.13
2022-10-01T01:08:24.964Z,10.14
2022-10-01T01:13:37.832Z,10.16
2022-10-01T01:18:50.544Z,10.11
2022-10-01T01:24:20.124Z,10.08
2022-10-01T01:29:33.656Z,10.07
2022-10-01T01:34:43.479Z,10.05
2022-10-01T01:39:53.377Z,10.02
2022-10-01T01:45:02.239Z,10.01
2022-10-01T01:50:10.824Z,9.98
2022-10-01T01:55:16.595Z,9.99
2022-10-01T02:00:22.509Z,10.06
2022-10-01T02:05:33.523Z,10.08
2022-10-01T02:10:55.960Z,10.05
2022-10-01T02:16:19.247Z,10.02
2022-10-01T02:21:32.867Z,10.03
2022-10-01T02:26:41.220Z,10.03
2022-10-01T02:31:49.215Z,10.01
2022-10-01T02:36:58.662Z,9.98
2022-10-01T02:42:06.673Z,9.94
2022-10-01T02:47:18.428Z,10.00
2022-10-01T02:52:32.818Z,10.07
2022-10-01T02:57:39.180Z,10.07
2022-10-01T03:02:44.935Z,10.09
2022-10-01T03:07:50.781Z,10.13
2022-10-01T03:12:56.703Z,10.14
2022-10-01T03:18:02.485Z,10.15
2022-10-01T03:23:08.104Z,10.08
2022-10-01T03:28:13.812Z,10.10
2022-10-01T03:33:19.679Z,10.08
2022-10-01T03:38:25.431Z,9.93
2022-10-01T03:43:31.290Z,9.78
2022-10-01T03:48:37.443Z,9.65
2022-10-01T03:53:43.260Z,9.48
2022-10-01T03:58:49.026Z,9.35
2022-10-01T04:03:55.156Z,9.26
2022-10-01T04:09:01.014Z,9.21
2022-10-01T04:14:06.931Z,9.11
2022-10-01T04:19:12.757Z,9.04
2022-10-01T04:24:18.677Z,8.82
2022-10-01T04:29:24.630Z,8.64
2022-10-01T04:34:49.091Z,8.56
2022-10-01T04:39:55.026Z,8.28
2022-10-01T04:45:00.730Z,8.11
2022-10-01T04:50:08.082Z,8.04
2022-10-01T04:55:15.028Z,7.89
2022-10-01T05:00:24.428Z,7.73
2022-10-01T05:05:32.998Z,7.61
2022-10-01T05:10:39.274Z,7.45
2022-10-01T05:15:45.077Z,7.37
2022-10-01T05:20:50.876Z,7.33
2022-10-01T05:25:56.783Z,7.27
2022-10-01T05:31:03.525Z,7.22
2022-10-01T05:36:09.697Z,7.16
2022-10-01T05:41:16.245Z,7.10
2022-10-01T05:46:22.134Z,7.09
2022-10-01T05:51:28.010Z,7.18
2022-10-01T05:56:33.887Z,7.52
2022-10-01T06:01:39.630Z,7.98
2022-10-01T06:06:45.478Z,8.55
2022-10-01T06:11:51.291Z,9.32
2022-10-01T06:16:57.170Z,10.70
2022-10-01T06:22:03.088Z,12.66
2022-10-01T06:27:11.325Z,15.44
2022-10-01T06:32:19.711Z,17.91
2022-10-01T06:37:25.938Z,20.22
2022-10-01T06:42:31.855Z,22.09
2022-10-01T06:47:37.850Z,23.64
2022-10-01T06:52:49.322Z,25.04
2022-10-01T06:57:59.021Z,25.36
2022-10-01T07:03:08.806Z,23.38
2022-10-01T07:08:15.004Z,22.32
2022-10-01T07:13:21.701Z,23.41
2022-10-01T07:18:27.759Z,25.01
2022-10-01T07:23:33.719Z,26.49
2022-10-01T07:28:39.585Z,27.54
2022-10-01T07:33:45.321Z,28.49
2022-10-01T07:38:51.433Z,29.60
2022-10-01T07:43:57.611Z,30.36
2022-10-01T07:49:03.546Z,30.79
2022-10-01T07:54:09.776Z,31.20
2022-10-01T07:59:15.562Z,30.98
2022-10-01T08:04:41.495Z,31.13
2022-10-01T08:09:47.659Z,30.95
2022-10-01T08:14:53.411Z,30.51
2022-10-01T08:20:03.850Z,30.70
2022-10-01T08:25:15.492Z,30.87
2022-10-01T08:30:21.189Z,30.93
2022-10-01T08:35:28.527Z,30.90
2022-10-01T08:40:38.145Z,30.95
2022-10-01T08:45:47.817Z,30.97
2022-10-01T08:51:00.652Z,30.41
2022-10-01T08:56:17.815Z,30.26
2022-10-01T09:01:23.922Z,30.37
2022-10-01T09:06:30.759Z,30.12
2022-10-01T09:11:48.967Z,29.75
2022-10-01T09:17:05.039Z,29.36
2022-10-01T09:22:26.181Z,28.88
2022-10-01T09:27:33.599Z,27.99
2022-10-01T09:32:43.362Z,26.22
2022-10-01T09:37:55.725Z,24.07
2022-10-01T09:43:01.909Z,22.42
2022-10-01T09:48:30.485Z,20.90
2022-10-01T09:53:42.510Z,19.60
2022-10-01T09:58:52.859Z,18.48
2022-10-01T10:03:59.431Z,17.69
2022-10-01T10:09:15.230Z,17.19
2022-10-01T10:14:28.552Z,16.75
2022-10-01T10:19:35.489Z,16.43
2022-10-01T10:24:41.308Z,16.21
2022-10-01T10:29:47.036Z,15.94
2022-10-01T10:35:00.821Z,15.59
2022-10-01T10:40:16.983Z,15.28
2022-10-01T10:45:29.866Z,15.01
2022-10-01T10:50:39.410Z,14.75
2022-10-01T10:55:56.130Z,14.57
2022-10-01T11:01:09.848Z,14.47
2022-10-01T11:06:18.635Z,14.47
2022-10-01T11:11:40.594Z,14.51
2022-10-01T11:17:04.936Z,14.56
2022-10-01T11:22:27.342Z,14.55
2022-10-01T11:27:44.670Z,14.67
2022-10-01T11:33:03.664Z,14.89
2022-10-01T11:38:39.557Z,15.21
2022-10-01T11:43:49.795Z,15.52
2022-10-01T11:49:02.227Z,15.77
2022-10-01T11:54:14.515Z,15.86
2022-10-01T11:59:28.541Z,16.01
2022-10-01T12:04:39.671Z,16.20
2022-10-01T12:09:55.444Z,16.14
2022-10-01T12:15:10.543Z,16.01
2022-10-01T12:20:23.958Z,16.01
2022-10-01T12:25:38.919Z,16.13
2022-10-01T12:30:53.876Z,16.18
2022-10-01T12:36:09.892Z,16.13
2022-10-01T12:41:29.968Z,16.14
2022-10-01T12:46:42.830Z,16.27
2022-10-01T12:51:55.192Z,16.47
2022-10-01T12:57:14.815Z,16.39
2022-10-01T13:02:41.847Z,16.29
2022-10-01T13:07:57.039Z,16.11
2022-10-01T13:13:11.070Z,15.76
2022-10-01T13:18:31.718Z,15.44
2022-10-01T13:23:44.927Z,15.24
2022-10-01T13:29:07.440Z,15.11
2022-10-01T13:34:35.286Z,15.02
2022-10-01T13:39:43.443Z,15.02
2022-10-01T13:44:55.706Z,15.09
2022-10-01T13:50:05.051Z,15.14
2022-10-01T13:55:28.059Z,15.09
2022-10-01T14:00:34.846Z,15.01
2022-10-01T14:05:43.077Z,14.99
2022-10-01T14:11:19.700Z,14.86
2022-10-01T14:16:25.644Z,14.77
2022-10-01T14:21:45.153Z,14.69
2022-10-01T14:26:55.962Z,14.60
2022-10-01T14:32:13.352Z,14.50
2022-10-01T14:37:21.066Z,14.42
2022-10-01T14:42:26.848Z,14.32
2022-10-01T14:47:35.965Z,14.20
2022-10-01T14:52:47.514Z,14.11
2022-10-01T14:57:55.646Z,13.97
2022-10-01T15:03:15.856Z,13.85
2022-10-01T15:08:35.855Z,13.72
2022-10-01T15:13:44.721Z,13.59
2022-10-01T15:18:53.594Z,13.50
2022-10-01T15:23:59.829Z,13.42
2022-10-01T15:29:12.323Z,13.34
2022-10-01T15:34:22.948Z,13.22
2022-10-01T15:39:32.610Z,13.15
2022-10-01T15:44:47.315Z,13.03
2022-10-01T15:50:18.459Z,12.94
2022-10-01T15:55:33.619Z,12.90
2022-10-01T16:00:54.366Z,12.87
2022-10-01T16:06:02.167Z,12.82
2022-10-01T16:11:18.901Z,12.76
2022-10-01T16:16:27.427Z,12.68
2022-10-01T16:21:41.431Z,12.60
2022-10-01T16:26:48.054Z,12.55
2022-10-01T16:31:56.185Z,12.55
2022-10-01T16:37:02.336Z,12.54
2022-10-01T16:42:23.186Z,12.48
2022-10-01T16:47:30.010Z,12.39
2022-10-01T16:52:36.344Z,12.31
2022-10-01T16:57:42.502Z,12.26
2022-10-01T17:02:48.641Z,12.24
2022-10-01T17:07:55.042Z,12.27
2022-10-01T17:13:02.077Z,12.26
2022-10-01T17:18:09.587Z,12.19
2022-10-01T17:23:18.259Z,12.18
2022-10-01T17:28:24.469Z,12.20
2022-10-01T17:33:30.734Z,12.22
2022-10-01T17:38:36.876Z,12.20
2022-10-01T17:43:42.533Z,12.15
2022-10-01T17:48:50.805Z,12.14
2022-10-01T17:53:56.753Z,12.15
2022-10-01T17:59:04.586Z,12.13
2022-10-01T18:04:12.369Z,12.09
2022-10-01T18:09:18.168Z,12.02
2022-10-01T18:14:24.069Z,11.99
2022-10-01T18:19:52.841Z,11.99
2022-10-01T18:24:56.702Z,11.93
2022-10-01T18:30:02.588Z,11.83
2022-10-01T18:35:19.388Z,11.70
2022-10-01T18:40:28.709Z,11.58
2022-10-01T18:45:45.755Z,11.50
2022-10-01T18:50:58.913Z,11.42
2022-10-01T18:56:24.034Z,11.30
2022-10-01T19:01:41.019Z,11.19
2022-10-01T19:06:54.177Z,11.12
2022-10-01T19:12:15.155Z,11.04
2022-10-01T19:17:34.159Z,10.98
2022-10-01T19:22:59.454Z,10.94
2022-10-01T19:28:16.634Z,10.90
2022-10-01T19:33:22.586Z,10.85
2022-10-01T19:38:34.698Z,10.84
2022-10-01T19:43:47.933Z,10.85
2022-10-01T19:49:00.641Z,10.85
2022-10-01T19:54:13.794Z,10.84
2022-10-01T19:59:21.168Z,10.85
2022-10-01T20:04:36.594Z,10.90
2022-10-01T20:09:45.418Z,10.95
2022-10-01T20:15:08.728Z,10.97
2022-10-01T20:20:23.383Z,10.99
2022-10-01T20:25:39.785Z,11.01
2022-10-01T20:30:57.023Z,11.06
2022-10-01T20:36:13.721Z,11.07
2022-10-01T20:41:23.224Z,11.02
2022-10-01T20:46:38.043Z,11.02
2022-10-01T20:51:53.924Z,11.06
2022-10-01T20:57:05.868Z,11.08
2022-10-01T21:02:34.590Z,11.11
2022-10-01T21:07:48.891Z,11.12
2022-10-01T21:13:02.592Z,11.15
2022-10-01T21:18:19.334Z,11.19
2022-10-01T21:23:39.624Z,11.20
2022-10-01T21:29:04.527Z,11.18
2022-10-01T21:34:17.581Z,11.20
2022-10-01T21:39:33.562Z,11.26
2022-10-01T21:45:12.063Z,11.29
2022-10-01T21:50:25.398Z,11.32
2022-10-01T21:55:47.511Z,11.38
2022-10-01T22:01:00.285Z,11.44
2022-10-01T22:06:16.332Z,11.46
2022-10-01T22:11:26.527Z,11.47
2022-10-01T22:16:40.542Z,11.51
2022-10-01T22:21:50.417Z,11.52
2022-10-01T22:27:05.499Z,11.50
2022-10-01T22:32:15.308Z,11.45
2022-10-01T22:37:26.839Z,11.44
2022-10-01T22:42:37.362Z,11.43
2022-10-01T22:47:59.146Z,11.38
2022-10-01T22:53:18.853Z,11.29
2022-10-01T22:58:38.965Z,11.24
2022-10-01T23:04:00.080Z,11.22
2022-10-01T23:09:09.754Z,11.18
2022-10-01T23:14:32.073Z,11.12
2022-10-01T23:19:49.806Z,11.08
2022-10-01T23:25:13.851Z,11.09
2022-10-01T23:30:20.975Z,11.10
2022-10-01T23:35:40.445Z,11.06
2022-10-01T23:40:48.293Z,11.07
2022-10-01T23:45:59.068Z,11.10
2022-10-01T23:51:09.875Z,11.09
2022-10-01T23:56:40.396Z,11.06
